AFL6079 UUEE-UWLL
Flight info
| Callsign | AFL6079 |
|---|---|
| Flight time | 1h 13m |
| Altitude | 37000 |
| Route | KOGOM3H KOGOM L94 EKPIR M864 IBROT T784 OTKOL T787 OKSUD T778 TERDI TERDI1F |
| Aircraft | B738/M-SDE2E3FGHIRWXY/LB1 |
Departure
| Time | 2026-04-23 17:00 |
|---|---|
| Airport | Sheremetyevo International Airport (UUEE) |
Arrival
| Time | 2026-04-23 18:13 |
|---|---|
| Airport | Ulyanovsk Baratayevka Airport (UWLL) |
| Time | Latitude | Longitude | Altitude | Speed | Heading |
|---|---|---|---|---|---|
| 2026-04-23 15:40 | 55.97927 | 37.42133 | 610 ft | 0 kts | 255° |
| 2026-04-23 16:52 | 55.97926 | 37.42129 | 638 ft | 2 kts | 255° |
| 2026-04-23 16:52 | 55.97918 | 37.42074 | 644 ft | 7 kts | 250° |
| 2026-04-23 16:53 | 55.97874 | 37.42050 | 644 ft | 8 kts | 169° |
| 2026-04-23 16:53 | 55.97821 | 37.42075 | 638 ft | 8 kts | 165° |
| 2026-04-23 16:53 | 55.97769 | 37.42099 | 638 ft | 8 kts | 165° |
| 2026-04-23 16:53 | 55.97714 | 37.42126 | 638 ft | 9 kts | 163° |
| 2026-04-23 16:54 | 55.97689 | 37.42215 | 640 ft | 9 kts | 78° |
| 2026-04-23 16:54 | 55.97707 | 37.42333 | 645 ft | 10 kts | 75° |
| 2026-04-23 16:54 | 55.97726 | 37.42466 | 641 ft | 12 kts | 75° |
| 2026-04-23 16:54 | 55.97749 | 37.42614 | 642 ft | 13 kts | 75° |
| 2026-04-23 16:55 | 55.97773 | 37.42777 | 639 ft | 14 kts | 75° |
| 2026-04-23 16:55 | 55.97799 | 37.42950 | 638 ft | 15 kts | 75° |
| 2026-04-23 16:55 | 55.97827 | 37.43134 | 641 ft | 16 kts | 75° |
| 2026-04-23 16:55 | 55.97856 | 37.43326 | 640 ft | 16 kts | 75° |
| 2026-04-23 16:56 | 55.97885 | 37.43528 | 638 ft | 17 kts | 75° |
| 2026-04-23 16:56 | 55.97917 | 37.43737 | 640 ft | 18 kts | 75° |
| 2026-04-23 16:56 | 55.97939 | 37.43882 | 643 ft | 9 kts | 75° |
| 2026-04-23 16:56 | 55.97951 | 37.43965 | 645 ft | 7 kts | 79° |
| 2026-04-23 16:57 | 55.97929 | 37.44033 | 638 ft | 8 kts | 163° |
| 2026-04-23 16:57 | 55.97922 | 37.44036 | 638 ft | 0 kts | 166° |
| 2026-04-23 16:58 | 55.97919 | 37.44038 | 642 ft | 1 kts | 166° |
| 2026-04-23 16:58 | 55.97898 | 37.44047 | 641 ft | 7 kts | 166° |
| 2026-04-23 16:59 | 55.97844 | 37.44072 | 639 ft | 8 kts | 166° |
| 2026-04-23 16:59 | 55.97792 | 37.44058 | 639 ft | 8 kts | 225° |
| 2026-04-23 16:59 | 55.97771 | 37.43956 | 641 ft | 13 kts | 255° |
| 2026-04-23 16:59 | 55.97697 | 37.43453 | 640 ft | 78 kts | 255° |
| 2026-04-23 17:00 | 55.97497 | 37.42110 | 643 ft | 143 kts | 255° |
| 2026-04-23 17:00 | 55.97204 | 37.40123 | 822 ft | 180 kts | 256° |
| 2026-04-23 17:00 | 55.96841 | 37.38040 | 1790 ft | 172 kts | 261° |
| 2026-04-23 17:00 | 55.96504 | 37.35924 | 2456 ft | 183 kts | 263° |
| 2026-04-23 17:01 | 55.96146 | 37.33659 | 2975 ft | 197 kts | 264° |
| 2026-04-23 17:01 | 55.95790 | 37.31202 | 3493 ft | 210 kts | 264° |
| 2026-04-23 17:01 | 55.95424 | 37.28622 | 4028 ft | 220 kts | 262° |
| 2026-04-23 17:01 | 55.95012 | 37.25953 | 4439 ft | 232 kts | 261° |
| 2026-04-23 17:02 | 55.94707 | 37.24056 | 4719 ft | 239 kts | 260° |
| 2026-04-23 17:02 | 55.94092 | 37.20170 | 5260 ft | 258 kts | 259° |
| 2026-04-23 17:02 | 55.93570 | 37.16908 | 5483 ft | 283 kts | 258° |
| 2026-04-23 17:02 | 55.93023 | 37.13514 | 6285 ft | 284 kts | 258° |
| 2026-04-23 17:03 | 55.92482 | 37.10127 | 7163 ft | 283 kts | 257° |
| 2026-04-23 17:03 | 55.91944 | 37.06743 | 7962 ft | 285 kts | 257° |
| 2026-04-23 17:03 | 55.91624 | 37.03288 | 8695 ft | 283 kts | 278° |
| 2026-04-23 17:03 | 55.92210 | 37.00024 | 9494 ft | 276 kts | 304° |
| 2026-04-23 17:04 | 55.93472 | 36.97476 | 9910 ft | 274 kts | 324° |
| 2026-04-23 17:04 | 55.95020 | 36.95534 | 10014 ft | 272 kts | 327° |
| 2026-04-23 17:04 | 55.96592 | 36.93632 | 10026 ft | 273 kts | 328° |
| 2026-04-23 17:04 | 55.98258 | 36.92118 | 10013 ft | 267 kts | 348° |
| 2026-04-23 17:05 | 56.00087 | 36.92001 | 10067 ft | 265 kts | 8° |
| 2026-04-23 17:05 | 56.01830 | 36.93108 | 10263 ft | 282 kts | 32° |
| 2026-04-23 17:05 | 56.03236 | 36.95766 | 10648 ft | 301 kts | 58° |
| 2026-04-23 17:05 | 56.03894 | 36.99304 | 11245 ft | 313 kts | 81° |
| 2026-04-23 17:06 | 56.03751 | 37.03231 | 11911 ft | 322 kts | 99° |
| 2026-04-23 17:06 | 56.03163 | 37.07138 | 12634 ft | 327 kts | 104° |
| 2026-04-23 17:06 | 56.02475 | 37.11053 | 13387 ft | 332 kts | 107° |
| 2026-04-23 17:06 | 56.01767 | 37.14988 | 14131 ft | 333 kts | 106° |
| 2026-04-23 17:07 | 56.01064 | 37.18953 | 14852 ft | 336 kts | 106° |
| 2026-04-23 17:07 | 56.00366 | 37.22964 | 15589 ft | 338 kts | 107° |
| 2026-04-23 17:07 | 55.99675 | 37.26995 | 16348 ft | 340 kts | 107° |
| 2026-04-23 17:07 | 55.98983 | 37.31067 | 17033 ft | 345 kts | 107° |
| 2026-04-23 17:08 | 55.98404 | 37.35289 | 17418 ft | 359 kts | 97° |
| 2026-04-23 17:08 | 55.98316 | 37.39837 | 17674 ft | 374 kts | 89° |
| 2026-04-23 17:08 | 55.98393 | 37.44546 | 18105 ft | 382 kts | 89° |
| 2026-04-23 17:08 | 55.98491 | 37.49257 | 18663 ft | 385 kts | 89° |
| 2026-04-23 17:09 | 55.98588 | 37.54053 | 19285 ft | 386 kts | 89° |
| 2026-04-23 17:09 | 55.98672 | 37.58873 | 19836 ft | 391 kts | 90° |
| 2026-04-23 17:09 | 55.98745 | 37.63754 | 20351 ft | 395 kts | 90° |
| 2026-04-23 17:09 | 55.98808 | 37.68664 | 20968 ft | 396 kts | 91° |
| 2026-04-23 17:10 | 55.98864 | 37.73610 | 21517 ft | 400 kts | 91° |
| 2026-04-23 17:10 | 55.98915 | 37.78605 | 22022 ft | 403 kts | 91° |
| 2026-04-23 17:10 | 55.98963 | 37.83625 | 22557 ft | 406 kts | 92° |
| 2026-04-23 17:10 | 55.99009 | 37.88699 | 23040 ft | 409 kts | 92° |
| 2026-04-23 17:11 | 55.99052 | 37.93797 | 23435 ft | 413 kts | 92° |
| 2026-04-23 17:11 | 55.99094 | 37.98949 | 23833 ft | 416 kts | 92° |
| 2026-04-23 17:11 | 55.99134 | 38.04068 | 24220 ft | 419 kts | 92° |
| 2026-04-23 17:11 | 55.99172 | 38.09300 | 24595 ft | 422 kts | 91° |
| 2026-04-23 17:12 | 55.99209 | 38.14566 | 24974 ft | 426 kts | 91° |
| 2026-04-23 17:12 | 55.99243 | 38.19884 | 25375 ft | 429 kts | 91° |
| 2026-04-23 17:12 | 55.99276 | 38.25235 | 25779 ft | 431 kts | 91° |
| 2026-04-23 17:12 | 55.99307 | 38.30613 | 26127 ft | 435 kts | 91° |
| 2026-04-23 17:13 | 55.99335 | 38.36051 | 26485 ft | 438 kts | 91° |
| 2026-04-23 17:13 | 55.99362 | 38.41512 | 26822 ft | 442 kts | 91° |
| 2026-04-23 17:13 | 55.99386 | 38.47037 | 27161 ft | 445 kts | 91° |
| 2026-04-23 17:13 | 55.99408 | 38.52511 | 27546 ft | 447 kts | 91° |
| 2026-04-23 17:14 | 55.99428 | 38.58087 | 27852 ft | 451 kts | 91° |
| 2026-04-23 17:14 | 55.99445 | 38.63707 | 28201 ft | 453 kts | 91° |
| 2026-04-23 17:14 | 55.99459 | 38.69361 | 28509 ft | 456 kts | 91° |
| 2026-04-23 17:14 | 55.99471 | 38.75065 | 28823 ft | 459 kts | 91° |
| 2026-04-23 17:15 | 55.99481 | 38.80774 | 29182 ft | 461 kts | 91° |
| 2026-04-23 17:15 | 55.99487 | 38.86548 | 29357 ft | 466 kts | 91° |
| 2026-04-23 17:15 | 55.99491 | 38.92349 | 29695 ft | 467 kts | 91° |
| 2026-04-23 17:15 | 55.99492 | 38.98144 | 30039 ft | 466 kts | 91° |
| 2026-04-23 17:16 | 55.99491 | 39.03861 | 30396 ft | 465 kts | 91° |
| 2026-04-23 17:16 | 55.99487 | 39.09615 | 30868 ft | 462 kts | 91° |
| 2026-04-23 17:16 | 55.99480 | 39.15357 | 31130 ft | 463 kts | 90° |
| 2026-04-23 17:16 | 55.99470 | 39.21143 | 31425 ft | 463 kts | 90° |
| 2026-04-23 17:17 | 55.99458 | 39.26908 | 31683 ft | 465 kts | 91° |
| 2026-04-23 17:17 | 55.99443 | 39.32707 | 31864 ft | 468 kts | 91° |
| 2026-04-23 17:17 | 55.99431 | 39.36546 | 32153 ft | 466 kts | 91° |
| 2026-04-23 17:17 | 55.99405 | 39.44295 | 32584 ft | 466 kts | 91° |
| 2026-04-23 17:18 | 55.99358 | 39.55773 | 33267 ft | 464 kts | 90° |
| 2026-04-23 17:18 | 55.99419 | 39.61538 | 33528 ft | 464 kts | 84° |
| 2026-04-23 17:18 | 55.99963 | 39.67217 | 33707 ft | 466 kts | 75° |
| 2026-04-23 17:19 | 56.00972 | 39.72715 | 33923 ft | 465 kts | 66° |
| 2026-04-23 17:19 | 56.02329 | 39.77947 | 34237 ft | 463 kts | 69° |
| 2026-04-23 17:19 | 56.03185 | 39.83490 | 34386 ft | 463 kts | 83° |
| 2026-04-23 17:20 | 56.03290 | 39.95016 | 34429 ft | 466 kts | 90° |
| 2026-04-23 17:21 | 56.03417 | 40.18124 | 34429 ft | 466 kts | 89° |
| 2026-04-23 17:21 | 56.03630 | 40.35514 | 34426 ft | 466 kts | 90° |
| 2026-04-23 17:22 | 56.03810 | 40.52915 | 34417 ft | 466 kts | 90° |
| 2026-04-23 17:23 | 56.03963 | 40.70208 | 34421 ft | 465 kts | 90° |
| 2026-04-23 17:24 | 56.04086 | 40.87560 | 34409 ft | 464 kts | 90° |
| 2026-04-23 17:24 | 56.04178 | 41.04879 | 34410 ft | 464 kts | 90° |
| 2026-04-23 17:25 | 56.04248 | 41.22198 | 34400 ft | 463 kts | 91° |
| 2026-04-23 17:26 | 56.04305 | 41.45213 | 34396 ft | 462 kts | 91° |
| 2026-04-23 17:27 | 56.04320 | 41.62389 | 34392 ft | 462 kts | 91° |
| 2026-04-23 17:27 | 56.04316 | 41.73883 | 34401 ft | 462 kts | 91° |
| 2026-04-23 17:28 | 56.04302 | 41.85361 | 34396 ft | 462 kts | 91° |
| 2026-04-23 17:28 | 56.04282 | 41.94909 | 34393 ft | 462 kts | 91° |
| 2026-04-23 17:29 | 56.04248 | 42.06402 | 34398 ft | 462 kts | 92° |
| 2026-04-23 17:30 | 56.04177 | 42.23660 | 34396 ft | 462 kts | 92° |
| 2026-04-23 17:30 | 56.04085 | 42.40945 | 34393 ft | 462 kts | 92° |
| 2026-04-23 17:31 | 56.03414 | 42.52245 | 34391 ft | 458 kts | 109° |
| 2026-04-23 17:31 | 56.00669 | 42.62403 | 34402 ft | 453 kts | 127° |
| 2026-04-23 17:32 | 55.97019 | 42.71576 | 34396 ft | 453 kts | 128° |
| 2026-04-23 17:32 | 55.93362 | 42.80759 | 34403 ft | 454 kts | 127° |
| 2026-04-23 17:33 | 55.89740 | 42.89982 | 34399 ft | 454 kts | 127° |
| 2026-04-23 17:33 | 55.86119 | 42.99217 | 34403 ft | 455 kts | 127° |
| 2026-04-23 17:34 | 55.82510 | 43.08386 | 34409 ft | 455 kts | 127° |
| 2026-04-23 17:35 | 55.77270 | 43.22481 | 34409 ft | 456 kts | 122° |
| 2026-04-23 17:35 | 55.72642 | 43.37258 | 34405 ft | 456 kts | 121° |
| 2026-04-23 17:36 | 55.69519 | 43.47036 | 34413 ft | 455 kts | 122° |
| 2026-04-23 17:36 | 55.66363 | 43.56767 | 34414 ft | 455 kts | 122° |
| 2026-04-23 17:37 | 55.63224 | 43.66404 | 34417 ft | 455 kts | 122° |
| 2026-04-23 17:37 | 55.60315 | 43.76342 | 34391 ft | 458 kts | 111° |
| 2026-04-23 17:38 | 55.59460 | 43.81786 | 34412 ft | 460 kts | 103° |
| 2026-04-23 17:38 | 55.58972 | 43.93106 | 34422 ft | 463 kts | 93° |
| 2026-04-23 17:39 | 55.58827 | 44.04495 | 34423 ft | 464 kts | 94° |
| 2026-04-23 17:39 | 55.58635 | 44.15906 | 34424 ft | 464 kts | 94° |
| 2026-04-23 17:40 | 55.58394 | 44.27252 | 34422 ft | 465 kts | 94° |
| 2026-04-23 17:40 | 55.58130 | 44.38689 | 34421 ft | 466 kts | 94° |
| 2026-04-23 17:41 | 55.57857 | 44.50136 | 34414 ft | 466 kts | 95° |
| 2026-04-23 17:41 | 55.57431 | 44.67334 | 34432 ft | 466 kts | 95° |
| 2026-04-23 17:42 | 55.56533 | 44.84407 | 34427 ft | 461 kts | 112° |
| 2026-04-23 17:42 | 55.55185 | 44.89403 | 34444 ft | 455 kts | 126° |
| 2026-04-23 17:43 | 55.53204 | 44.93790 | 34437 ft | 449 kts | 140° |
| 2026-04-23 17:43 | 55.48617 | 45.01145 | 34452 ft | 449 kts | 141° |
| 2026-04-23 17:44 | 55.43976 | 45.08535 | 34441 ft | 449 kts | 141° |
| 2026-04-23 17:44 | 55.37049 | 45.19710 | 34449 ft | 450 kts | 140° |
| 2026-04-23 17:45 | 55.30128 | 45.30894 | 34457 ft | 451 kts | 140° |
| 2026-04-23 17:46 | 55.23227 | 45.41989 | 34368 ft | 450 kts | 141° |
| 2026-04-23 17:46 | 55.20906 | 45.45705 | 33846 ft | 457 kts | 141° |
| 2026-04-23 17:46 | 55.18522 | 45.49513 | 33128 ft | 457 kts | 141° |
| 2026-04-23 17:47 | 55.16206 | 45.53212 | 32413 ft | 457 kts | 141° |
| 2026-04-23 17:47 | 55.13859 | 45.56954 | 31701 ft | 456 kts | 141° |
| 2026-04-23 17:47 | 55.09185 | 45.64388 | 30330 ft | 453 kts | 142° |
| 2026-04-23 17:48 | 55.06856 | 45.68082 | 29666 ft | 452 kts | 142° |
| 2026-04-23 17:48 | 55.04531 | 45.71765 | 28869 ft | 450 kts | 142° |
| 2026-04-23 17:48 | 55.02218 | 45.75420 | 28110 ft | 447 kts | 142° |
| 2026-04-23 17:48 | 54.99924 | 45.79041 | 27509 ft | 440 kts | 142° |
| 2026-04-23 17:49 | 54.97663 | 45.82605 | 26967 ft | 438 kts | 141° |
| 2026-04-23 17:49 | 54.95381 | 45.86190 | 26446 ft | 444 kts | 141° |
| 2026-04-23 17:49 | 54.93101 | 45.89767 | 25930 ft | 449 kts | 141° |
| 2026-04-23 17:49 | 54.90777 | 45.93409 | 25425 ft | 449 kts | 141° |
| 2026-04-23 17:50 | 54.88463 | 45.97035 | 24923 ft | 447 kts | 141° |
| 2026-04-23 17:50 | 54.83871 | 46.04215 | 24509 ft | 443 kts | 141° |
| 2026-04-23 17:50 | 54.81583 | 46.07780 | 24498 ft | 442 kts | 141° |
| 2026-04-23 17:51 | 54.79293 | 46.11341 | 24485 ft | 442 kts | 141° |
| 2026-04-23 17:51 | 54.76953 | 46.14803 | 24488 ft | 441 kts | 143° |
| 2026-04-23 17:51 | 54.72152 | 46.21414 | 24503 ft | 440 kts | 144° |
| 2026-04-23 17:52 | 54.69753 | 46.24664 | 24482 ft | 433 kts | 144° |
| 2026-04-23 17:52 | 54.65208 | 46.30861 | 24291 ft | 400 kts | 144° |
| 2026-04-23 17:52 | 54.63065 | 46.33795 | 24183 ft | 386 kts | 144° |
| 2026-04-23 17:53 | 54.59011 | 46.39347 | 23787 ft | 367 kts | 144° |
| 2026-04-23 17:53 | 54.57014 | 46.42075 | 23355 ft | 365 kts | 144° |
| 2026-04-23 17:53 | 54.55023 | 46.44791 | 22889 ft | 364 kts | 144° |
| 2026-04-23 17:54 | 54.53042 | 46.47492 | 22433 ft | 361 kts | 144° |
| 2026-04-23 17:54 | 54.51211 | 46.50429 | 21950 ft | 364 kts | 128° |
| 2026-04-23 17:54 | 54.49873 | 46.58789 | 21079 ft | 367 kts | 94° |
| 2026-04-23 17:55 | 54.49856 | 46.67547 | 19837 ft | 366 kts | 92° |
| 2026-04-23 17:55 | 54.49865 | 46.71917 | 19307 ft | 363 kts | 92° |
| 2026-04-23 17:55 | 54.49868 | 46.76186 | 18816 ft | 359 kts | 93° |
| 2026-04-23 17:56 | 54.49860 | 46.80481 | 18311 ft | 357 kts | 93° |
| 2026-04-23 17:56 | 54.49824 | 46.88958 | 17264 ft | 350 kts | 93° |
| 2026-04-23 17:56 | 54.49800 | 46.93126 | 16703 ft | 347 kts | 93° |
| 2026-04-23 17:57 | 54.49772 | 46.97264 | 16152 ft | 344 kts | 93° |
| 2026-04-23 17:57 | 54.49742 | 47.01322 | 15623 ft | 341 kts | 93° |
| 2026-04-23 17:57 | 54.49679 | 47.09428 | 14584 ft | 336 kts | 93° |
| 2026-04-23 17:58 | 54.49645 | 47.13433 | 14087 ft | 334 kts | 93° |
| 2026-04-23 17:58 | 54.49611 | 47.17407 | 13598 ft | 331 kts | 93° |
| 2026-04-23 17:58 | 54.49575 | 47.21349 | 13053 ft | 328 kts | 92° |
| 2026-04-23 17:58 | 54.49539 | 47.25246 | 12530 ft | 322 kts | 93° |
| 2026-04-23 17:59 | 54.49504 | 47.29015 | 12286 ft | 308 kts | 93° |
| 2026-04-23 17:59 | 54.49469 | 47.32639 | 11955 ft | 298 kts | 93° |
| 2026-04-23 17:59 | 54.49434 | 47.36129 | 11362 ft | 287 kts | 93° |
| 2026-04-23 17:59 | 54.49398 | 47.39551 | 10522 ft | 286 kts | 94° |
| 2026-04-23 18:00 | 54.49359 | 47.42983 | 9980 ft | 286 kts | 94° |
| 2026-04-23 18:00 | 54.49321 | 47.46388 | 9526 ft | 285 kts | 94° |
| 2026-04-23 18:00 | 54.49281 | 47.49793 | 9011 ft | 285 kts | 94° |
| 2026-04-23 18:00 | 54.49242 | 47.53151 | 8529 ft | 283 kts | 94° |
| 2026-04-23 18:01 | 54.49201 | 47.56536 | 8049 ft | 282 kts | 94° |
| 2026-04-23 18:01 | 54.49160 | 47.59900 | 7656 ft | 279 kts | 94° |
| 2026-04-23 18:01 | 54.49118 | 47.63242 | 7194 ft | 281 kts | 94° |
| 2026-04-23 18:01 | 54.49074 | 47.66623 | 6812 ft | 284 kts | 94° |
| 2026-04-23 18:02 | 54.49044 | 47.68880 | 6559 ft | 285 kts | 94° |
| 2026-04-23 18:02 | 54.48983 | 47.73442 | 6170 ft | 284 kts | 94° |
| 2026-04-23 18:02 | 54.48937 | 47.76836 | 5880 ft | 283 kts | 94° |
| 2026-04-23 18:02 | 54.48891 | 47.80220 | 5605 ft | 281 kts | 94° |
| 2026-04-23 18:03 | 54.48844 | 47.83544 | 5516 ft | 275 kts | 94° |
| 2026-04-23 18:03 | 54.48795 | 47.86879 | 5076 ft | 280 kts | 95° |
| 2026-04-23 18:03 | 54.48747 | 47.90174 | 4831 ft | 277 kts | 95° |
| 2026-04-23 18:03 | 54.48698 | 47.93479 | 4577 ft | 275 kts | 95° |
| 2026-04-23 18:04 | 54.48648 | 47.96756 | 4324 ft | 273 kts | 95° |
| 2026-04-23 18:04 | 54.48598 | 48.00006 | 4062 ft | 271 kts | 95° |
| 2026-04-23 18:04 | 54.48547 | 48.03241 | 3804 ft | 270 kts | 95° |
| 2026-04-23 18:04 | 54.48495 | 48.06457 | 3547 ft | 269 kts | 95° |
| 2026-04-23 18:05 | 54.48442 | 48.09670 | 3284 ft | 269 kts | 96° |
| 2026-04-23 18:05 | 54.48390 | 48.12875 | 3028 ft | 268 kts | 96° |
| 2026-04-23 18:05 | 54.48337 | 48.16077 | 2777 ft | 267 kts | 96° |
| 2026-04-23 18:05 | 54.48282 | 48.19256 | 2573 ft | 263 kts | 96° |
| 2026-04-23 18:06 | 54.48229 | 48.22375 | 2508 ft | 260 kts | 97° |
| 2026-04-23 18:06 | 54.48169 | 48.25472 | 2299 ft | 256 kts | 98° |
| 2026-04-23 18:06 | 54.47978 | 48.28469 | 2267 ft | 250 kts | 105° |
| 2026-04-23 18:06 | 54.47618 | 48.31398 | 2235 ft | 250 kts | 110° |
| 2026-04-23 18:07 | 54.47145 | 48.34180 | 2189 ft | 237 kts | 115° |
| 2026-04-23 18:07 | 54.46616 | 48.36682 | 2130 ft | 210 kts | 121° |
| 2026-04-23 18:07 | 54.45838 | 48.38535 | 1999 ft | 175 kts | 154° |
| 2026-04-23 18:07 | 54.44815 | 48.39397 | 1978 ft | 157 kts | 172° |
| 2026-04-23 18:08 | 54.44108 | 48.39605 | 1984 ft | 150 kts | 182° |
| 2026-04-23 18:08 | 54.42833 | 48.39270 | 1980 ft | 135 kts | 210° |
| 2026-04-23 18:08 | 54.42012 | 48.38496 | 1989 ft | 135 kts | 209° |
| 2026-04-23 18:08 | 54.41193 | 48.37722 | 1984 ft | 132 kts | 211° |
| 2026-04-23 18:09 | 54.40407 | 48.36922 | 1992 ft | 132 kts | 213° |
| 2026-04-23 18:09 | 54.39633 | 48.36107 | 1994 ft | 130 kts | 213° |
| 2026-04-23 18:09 | 54.38849 | 48.35274 | 2004 ft | 137 kts | 213° |
| 2026-04-23 18:09 | 54.38042 | 48.34411 | 1988 ft | 136 kts | 212° |
| 2026-04-23 18:10 | 54.37243 | 48.33555 | 1994 ft | 134 kts | 213° |
| 2026-04-23 18:10 | 54.36453 | 48.32705 | 1990 ft | 134 kts | 213° |
| 2026-04-23 18:10 | 54.35666 | 48.31860 | 1995 ft | 132 kts | 213° |
| 2026-04-23 18:10 | 54.34905 | 48.31042 | 1962 ft | 128 kts | 213° |
| 2026-04-23 18:11 | 54.34156 | 48.30236 | 1803 ft | 126 kts | 212° |
| 2026-04-23 18:11 | 54.33424 | 48.29449 | 1656 ft | 124 kts | 212° |
| 2026-04-23 18:11 | 54.32695 | 48.28665 | 1479 ft | 123 kts | 212° |
| 2026-04-23 18:11 | 54.32216 | 48.28151 | 1365 ft | 123 kts | 212° |
| 2026-04-23 18:12 | 54.31213 | 48.27071 | 1121 ft | 136 kts | 212° |
| 2026-04-23 18:12 | 54.30396 | 48.26188 | 942 ft | 142 kts | 211° |
| 2026-04-23 18:12 | 54.29533 | 48.25273 | 714 ft | 148 kts | 209° |
| 2026-04-23 18:12 | 54.28662 | 48.24335 | 514 ft | 148 kts | 210° |
| 2026-04-23 18:13 | 54.27801 | 48.23402 | 399 ft | 140 kts | 209° |
| 2026-04-23 18:13 | 54.27104 | 48.22661 | 417 ft | 72 kts | 212° |
| 2026-04-23 18:13 | 54.26945 | 48.22496 | 423 ft | 25 kts | 210° |
| 2026-04-23 18:13 | 54.26828 | 48.22382 | 427 ft | 13 kts | 210° |
| 2026-04-23 18:14 | 54.26805 | 48.22348 | 419 ft | 1 kts | 262° |
| 2026-04-23 18:14 | 54.26820 | 48.22336 | 428 ft | 5 kts | 353° |
| 2026-04-23 18:14 | 54.26893 | 48.22418 | 420 ft | 12 kts | 36° |
| 2026-04-23 18:14 | 54.26948 | 48.22482 | 417 ft | 16 kts | 29° |
| 2026-04-23 18:15 | 54.27057 | 48.22600 | 415 ft | 20 kts | 32° |
| 2026-04-23 18:15 | 54.27189 | 48.22742 | 409 ft | 24 kts | 32° |
| 2026-04-23 18:15 | 54.27327 | 48.22890 | 410 ft | 24 kts | 32° |
| 2026-04-23 18:15 | 54.27464 | 48.23037 | 411 ft | 23 kts | 32° |
| 2026-04-23 18:16 | 54.27596 | 48.23180 | 410 ft | 22 kts | 32° |
| 2026-04-23 18:16 | 54.27739 | 48.23334 | 402 ft | 26 kts | 32° |
| 2026-04-23 18:16 | 54.27902 | 48.23510 | 394 ft | 29 kts | 32° |
| 2026-04-23 18:17 | 54.28188 | 48.23817 | 393 ft | 17 kts | 32° |
| 2026-04-23 18:17 | 54.28257 | 48.23891 | 391 ft | 4 kts | 29° |
| 2026-04-23 18:17 | 54.28287 | 48.23888 | 391 ft | 5 kts | 332° |
| 2026-04-23 18:17 | 54.28312 | 48.23834 | 390 ft | 7 kts | 301° |
| 2026-04-23 18:18 | 54.28340 | 48.23756 | 388 ft | 0 kts | 302° |
| 2026-04-23 18:18 | 54.28349 | 48.23732 | 387 ft | 4 kts | 302° |
| 2026-04-23 18:18 | 54.28372 | 48.23669 | 386 ft | 8 kts | 302° |
| 2026-04-23 18:18 | 54.28410 | 48.23566 | 382 ft | 13 kts | 302° |
| 2026-04-23 18:19 | 54.28447 | 48.23465 | 377 ft | 11 kts | 301° |
| 2026-04-23 18:19 | 54.28481 | 48.23368 | 374 ft | 3 kts | 301° |
| 2026-04-23 18:19 | 54.28496 | 48.23353 | 373 ft | 0 kts | 324° |
| 2026-04-23 18:19 | 54.28508 | 48.23358 | 373 ft | 4 kts | 23° |
| 2026-04-23 18:20 | 54.28527 | 48.23409 | 373 ft | 5 kts | 76° |
| 2026-04-23 18:20 | 54.28522 | 48.23466 | 374 ft | 4 kts | 102° |
| 2026-04-23 18:20 | 54.28509 | 48.23509 | 375 ft | 1 kts | 123° |
| 2026-04-23 18:20 | 54.28504 | 48.23521 | 375 ft | 1 kts | 121° |
| 2026-04-23 18:21 | 54.28506 | 48.23539 | 376 ft | 2 kts | 85° |
| 2026-04-23 18:21 | 54.28501 | 48.23559 | 376 ft | 2 kts | 117° |
| 2026-04-23 18:21 | 54.28500 | 48.23562 | 376 ft | 0 kts | 121° |